Time;durP1;ratioP1;P1;durP2;ratioP2;P2;SDS_P1;SDS_P2;PMS_P1;PMS_P2;Temp;Humidity;BMP_temperature;BMP_pressure;BME280_temperature;BME280_humidity;BME280_pressure;Samples;Min_cycle;Max_cycle;Signal;HPM_P1;HPM_P2
2022/10/27 00:02:21;;;;;;;34.28;17.98;;;10.00;99.90;;;;;;5205062;28;20067;-76
2022/10/27 00:05:12;;;;;;;25.23;14.82;;;10.00;99.90;;;;;;5194191;28;20057;-76
2022/10/27 00:08:04;;;;;;;30.95;15.75;;;10.00;99.90;;;;;;5224563;28;20021;-76
2022/10/27 00:10:57;;;;;;;28.80;15.85;;;9.90;99.90;;;;;;5184336;28;20044;-75
2022/10/27 00:13:49;;;;;;;27.52;14.82;;;9.90;99.90;;;;;;5184406;28;20026;-76
2022/10/27 00:16:41;;;;;;;26.65;14.43;;;10.00;99.90;;;;;;5195256;28;20025;-75
2022/10/27 00:19:34;;;;;;;30.95;15.45;;;10.10;99.90;;;;;;5204141;28;20138;-74
2022/10/27 00:22:28;;;;;;;30.05;14.85;;;10.10;99.90;;;;;;5203648;28;20191;-76
2022/10/27 00:25:19;;;;;;;27.85;14.23;;;10.10;99.90;;;;;;5201689;28;20030;-76
2022/10/27 00:28:10;;;;;;;26.92;13.80;;;10.00;99.90;;;;;;5204345;28;20026;-75
2022/10/27 00:31:17;;;;;;;24.10;13.40;;;9.90;99.90;;;;;;5192404;28;20029;-76
2022/10/27 00:34:10;;;;;;;25.95;12.30;;;9.80;99.90;;;;;;5190322;28;20036;-76
2022/10/27 00:37:04;;;;;;;24.67;12.98;;;9.70;99.90;;;;;;5203387;28;20214;-77
2022/10/27 00:40:01;;;;;;;22.27;12.40;;;9.60;99.90;;;;;;5181841;28;20068;-76
2022/10/27 00:42:53;;;;;;;23.85;13.75;;;9.90;99.90;;;;;;5183132;28;20032;-76
2022/10/27 00:45:47;;;;;;;21.70;12.40;;;9.90;99.90;;;;;;5186867;28;20036;-76
2022/10/27 00:48:41;;;;;;;27.95;13.77;;;9.80;99.90;;;;;;5204265;28;20031;-76
2022/10/27 00:51:33;;;;;;;21.88;12.10;;;9.90;99.90;;;;;;5204818;28;20556;-76
2022/10/27 00:54:29;;;;;;;26.63;12.38;;;9.80;99.90;;;;;;5190796;28;20029;-75
2022/10/27 00:57:21;;;;;;;23.77;13.07;;;9.80;99.90;;;;;;5180543;28;20096;-75
2022/10/27 01:00:16;;;;;;;24.40;13.13;;;9.80;99.90;;;;;;5182332;28;20037;-75
2022/10/27 01:03:10;;;;;;;25.83;12.35;;;9.80;99.90;;;;;;5202515;28;20060;-75
2022/10/27 01:06:05;;;;;;;27.08;13.05;;;9.70;99.90;;;;;;5190881;28;20049;-76
2022/10/27 01:09:00;;;;;;;23.88;12.85;;;9.80;99.90;;;;;;5201751;28;20358;-75
2022/10/27 01:11:51;;;;;;;27.02;13.52;;;9.80;99.90;;;;;;5201868;28;20033;-76
2022/10/27 01:14:43;;;;;;;21.27;12.30;;;9.80;99.90;;;;;;5186764;28;20038;-76
2022/10/27 01:17:59;;;;;;;22.17;12.30;;;9.80;99.90;;;;;;5186772;28;20017;-75
2022/10/27 01:21:02;;;;;;;20.63;11.82;;;9.70;99.90;;;;;;5186287;28;20027;-75
2022/10/27 01:24:18;;;;;;;24.75;12.90;;;9.60;99.90;;;;;;5202021;28;20345;-76
2022/10/27 01:27:39;;;;;;;22.25;12.65;;;9.60;99.90;;;;;;5179018;28;20029;-76
2022/10/27 01:30:49;;;;;;;23.00;12.82;;;9.50;99.90;;;;;;5181659;28;20030;-77
2022/10/27 01:34:04;;;;;;;22.08;12.57;;;9.60;99.90;;;;;;5180903;28;20036;-75
2022/10/27 01:37:10;;;;;;;28.83;12.95;;;9.50;99.90;;;;;;5178535;28;20026;-76
2022/10/27 01:40:07;;;;;;;29.70;13.27;;;9.40;99.90;;;;;;5181875;28;20029;-76
2022/10/27 01:43:07;;;;;;;26.67;13.75;;;9.40;99.90;;;;;;5201177;28;20056;-74
2022/10/27 01:46:00;;;;;;;24.73;13.75;;;9.60;99.90;;;;;;5201695;28;20033;-75
2022/10/27 01:48:53;;;;;;;26.58;13.45;;;9.50;99.90;;;;;;5202093;28;20372;-75
2022/10/27 01:51:47;;;;;;;26.55;13.73;;;9.60;99.90;;;;;;5185477;28;20036;-76
2022/10/27 01:54:38;;;;;;;26.15;12.90;;;9.60;99.90;;;;;;5201744;28;20032;-74
2022/10/27 01:57:36;;;;;;;21.58;13.02;;;9.60;99.90;;;;;;5184794;28;20044;-75
2022/10/27 02:00:32;;;;;;;22.35;12.63;;;9.50;99.90;;;;;;5190791;28;20034;-75
2022/10/27 02:03:32;;;;;;;25.08;11.73;;;9.40;99.90;;;;;;5195704;28;20064;-75
2022/10/27 02:06:30;;;;;;;28.50;13.98;;;9.50;99.90;;;;;;5182006;28;20350;-75
2022/10/27 02:09:27;;;;;;;33.85;14.43;;;9.50;99.90;;;;;;5199745;28;20029;-75
2022/10/27 02:12:32;;;;;;;28.00;14.98;;;9.50;99.90;;;;;;5201333;28;20052;-74
2022/10/27 02:15:41;;;;;;;32.80;16.60;;;9.50;99.90;;;;;;5178635;28;20045;-76
2022/10/27 02:18:39;;;;;;;31.52;15.05;;;9.60;99.90;;;;;;5182776;28;20045;-75
2022/10/27 02:21:33;;;;;;;34.58;16.60;;;9.70;99.90;;;;;;5201143;28;20034;-74
2022/10/27 02:24:27;;;;;;;33.80;16.65;;;9.70;99.90;;;;;;5202147;28;20247;-75
2022/10/27 02:27:33;;;;;;;32.90;14.10;;;9.70;99.90;;;;;;5204670;28;20097;-76
2022/10/27 02:30:26;;;;;;;27.52;13.77;;;9.40;99.90;;;;;;5198750;28;20021;-73
2022/10/27 02:33:18;;;;;;;26.08;13.60;;;9.30;99.90;;;;;;5186411;28;20030;-74
2022/10/27 02:36:10;;;;;;;26.00;12.90;;;9.10;99.90;;;;;;5200144;28;20024;-76
2022/10/27 02:39:03;;;;;;;25.98;14.73;;;9.00;99.90;;;;;;5201210;28;20031;-73
2022/10/27 02:41:55;;;;;;;35.80;15.00;;;9.10;99.90;;;;;;5201031;28;20331;-74
2022/10/27 02:44:49;;;;;;;25.98;13.50;;;9.10;99.90;;;;;;5186023;28;20029;-74
2022/10/27 02:47:42;;;;;;;26.67;13.70;;;9.00;99.90;;;;;;5185382;28;20025;-74
2022/10/27 02:50:38;;;;;;;25.00;13.73;;;8.90;99.90;;;;;;5199588;28;20029;-74
2022/10/27 02:53:31;;;;;;;23.63;13.75;;;9.00;99.90;;;;;;5198935;28;20028;-75
2022/10/27 02:56:26;;;;;;;29.50;14.00;;;8.90;99.90;;;;;;5192360;28;20043;-74
2022/10/27 02:59:20;;;;;;;24.30;13.70;;;8.80;99.90;;;;;;5200930;28;20047;-74
2022/10/27 03:02:21;;;;;;;25.55;12.63;;;8.80;99.90;;;;;;5197571;28;20397;-74
2022/10/27 03:05:16;;;;;;;28.30;14.32;;;8.70;99.90;;;;;;5195608;28;20103;-76
2022/10/27 03:08:16;;;;;;;33.35;14.38;;;8.70;99.90;;;;;;5206313;28;20023;-74
2022/10/27 03:11:07;;;;;;;24.55;13.45;;;8.70;99.90;;;;;;5206237;28;20039;-74
2022/10/27 03:13:59;;;;;;;22.90;13.15;;;8.80;99.90;;;;;;5206664;28;20024;-75
2022/10/27 03:16:53;;;;;;;27.20;13.98;;;8.80;99.90;;;;;;5206789;28;20210;-76
2022/10/27 03:19:47;;;;;;;29.13;14.73;;;8.90;99.90;;;;;;5198432;28;20050;-76
2022/10/27 03:22:44;;;;;;;26.70;13.63;;;8.80;99.90;;;;;;5192356;28;20044;-76
2022/10/27 03:25:43;;;;;;;29.40;13.88;;;8.80;99.90;;;;;;5207445;28;20033;-76
2022/10/27 03:28:37;;;;;;;26.17;13.95;;;8.80;99.90;;;;;;5197775;28;20043;-75
2022/10/27 03:31:29;;;;;;;29.65;14.55;;;8.80;99.90;;;;;;5192507;28;20032;-76
2022/10/27 03:34:22;;;;;;;27.50;15.32;;;8.80;99.90;;;;;;5193280;28;20617;-75
2022/10/27 03:37:16;;;;;;;34.05;16.00;;;8.90;99.90;;;;;;5191053;28;20040;-76
2022/10/27 03:40:08;;;;;;;32.17;16.13;;;8.90;99.90;;;;;;5206348;28;20022;-76
2022/10/27 03:43:05;;;;;;;30.23;14.85;;;9.00;99.90;;;;;;5205707;28;20033;-75
2022/10/27 03:45:56;;;;;;;28.35;14.85;;;8.90;99.90;;;;;;5205904;28;20055;-74
2022/10/27 03:48:53;;;;;;;29.88;15.88;;;9.00;99.90;;;;;;5191176;28;20040;-74
2022/10/27 03:51:44;;;;;;;31.98;17.17;;;8.90;99.90;;;;;;5204749;28;20041;-75
2022/10/27 03:54:36;;;;;;;35.92;17.85;;;9.10;99.90;;;;;;5205850;28;20246;-76
2022/10/27 03:57:27;;;;;;;32.25;16.63;;;9.10;99.90;;;;;;5187280;28;20051;-76
2022/10/27 04:00:19;;;;;;;35.15;16.65;;;9.10;99.90;;;;;;5184628;28;20031;-76
2022/10/27 04:03:13;;;;;;;33.22;14.88;;;9.10;99.90;;;;;;5183285;28;20044;-75
2022/10/27 04:06:04;;;;;;;34.88;16.75;;;9.10;99.90;;;;;;5178036;28;20362;-76
2022/10/27 04:08:59;;;;;;;33.75;14.95;;;9.00;99.90;;;;;;5210914;28;20225;-76
2022/10/27 04:11:50;;;;;;;36.45;16.20;;;9.00;99.90;;;;;;5212500;28;20035;-74
2022/10/27 04:14:44;;;;;;;29.33;15.98;;;9.10;99.90;;;;;;5209764;28;20241;-74
2022/10/27 04:17:36;;;;;;;31.38;15.38;;;9.20;99.90;;;;;;5223182;28;20031;-74
2022/10/27 04:20:31;;;;;;;31.33;16.00;;;9.20;99.90;;;;;;5208837;28;20039;-76
2022/10/27 04:23:22;;;;;;;30.77;15.18;;;9.10;99.90;;;;;;5212919;28;20532;-76
2022/10/27 04:26:16;;;;;;;36.08;14.13;;;9.10;99.90;;;;;;5202776;28;20033;-75
2022/10/27 04:29:12;;;;;;;28.10;14.82;;;9.20;99.90;;;;;;5203024;28;20031;-75
2022/10/27 04:32:05;;;;;;;21.90;12.80;;;9.20;99.90;;;;;;5188118;28;20420;-74
2022/10/27 04:34:59;;;;;;;23.13;12.60;;;9.30;99.90;;;;;;5202853;28;20035;-75
2022/10/27 04:37:51;;;;;;;20.83;11.23;;;9.30;99.90;;;;;;5186864;28;20223;-75
2022/10/27 04:40:42;;;;;;;28.48;14.07;;;9.20;99.90;;;;;;5200452;28;20034;-75
2022/10/27 04:43:36;;;;;;;29.02;13.85;;;9.00;99.90;;;;;;5188726;28;20025;-75
2022/10/27 04:46:27;;;;;;;29.42;14.77;;;8.90;99.90;;;;;;5187574;28;20043;-75
2022/10/27 04:49:19;;;;;;;27.60;14.30;;;8.70;99.90;;;;;;5201022;28;20021;-75
2022/10/27 04:52:10;;;;;;;24.58;12.48;;;8.60;99.90;;;;;;5187037;28;20033;-74
2022/10/27 04:55:04;;;;;;;26.88;13.30;;;8.50;99.90;;;;;;5177863;28;20029;-74
2022/10/27 04:57:56;;;;;;;29.63;14.23;;;8.40;99.90;;;;;;5167109;28;20040;-74
2022/10/27 05:00:50;;;;;;;23.95;12.48;;;8.40;99.90;;;;;;5182392;28;20030;-76
2022/10/27 05:03:48;;;;;;;23.90;12.20;;;8.40;99.90;;;;;;5202116;28;20033;-74
2022/10/27 05:06:39;;;;;;;21.20;11.68;;;8.50;99.90;;;;;;5177582;28;20041;-75
2022/10/27 05:09:31;;;;;;;27.08;13.32;;;8.50;99.90;;;;;;5208548;28;20364;-74
2022/10/27 05:12:23;;;;;;;25.55;13.02;;;8.70;99.90;;;;;;5200730;28;20029;-75
2022/10/27 05:15:14;;;;;;;26.52;12.15;;;8.80;99.90;;;;;;5201421;28;20022;-75
2022/10/27 05:18:06;;;;;;;18.70;10.45;;;8.90;99.90;;;;;;5205469;28;20020;-75
2022/10/27 05:21:00;;;;;;;18.80;10.30;;;9.00;99.90;;;;;;5201943;28;20037;-75
2022/10/27 05:23:52;;;;;;;26.33;12.27;;;9.10;99.90;;;;;;5202528;28;20332;-74
2022/10/27 05:26:46;;;;;;;20.13;10.98;;;9.10;99.90;;;;;;5185533;28;20033;-75
2022/10/27 05:29:38;;;;;;;18.58;10.52;;;9.10;99.90;;;;;;5202323;28;20245;-75
2022/10/27 05:32:33;;;;;;;23.80;11.43;;;9.20;99.90;;;;;;5187607;28;20172;-74
2022/10/27 05:35:24;;;;;;;;;;;9.30;99.90;;;;;;5187637;28;20230;-75
2022/10/27 05:38:16;;;;;;;19.75;10.30;;;9.40;99.90;;;;;;5202652;28;19909;-73
2022/10/27 05:41:08;;;;;;;22.27;10.55;;;9.50;99.90;;;;;;5187492;28;20025;-74
2022/10/27 05:44:03;;;;;;;22.05;9.80;;;9.50;99.90;;;;;;5200842;28;20266;-75
2022/10/27 05:46:55;;;;;;;28.50;10.43;;;9.60;99.90;;;;;;5202101;28;20033;-76
2022/10/27 05:49:46;;;;;;;20.85;10.02;;;9.70;99.90;;;;;;5200739;28;20036;-75
2022/10/27 05:52:44;;;;;;;19.60;9.07;;;9.80;99.90;;;;;;5202290;28;20360;-74
2022/10/27 05:55:35;;;;;;;16.05;8.13;;;9.80;99.90;;;;;;5202250;28;20033;-74
2022/10/27 05:58:29;;;;;;;15.15;8.32;;;9.90;99.90;;;;;;5200875;28;20033;-75
2022/10/27 06:01:20;;;;;;;10.57;7.30;;;10.10;99.90;;;;;;5186157;28;20033;-74
2022/10/27 06:04:16;;;;;;;14.32;8.20;;;10.10;99.90;;;;;;5192256;28;20265;-75
2022/10/27 06:07:10;;;;;;;13.98;7.78;;;10.20;99.90;;;;;;5187832;28;20026;-75
2022/10/27 06:10:01;;;;;;;13.85;8.32;;;10.20;99.90;;;;;;5200743;28;20238;-74
2022/10/27 06:13:01;;;;;;;18.13;8.40;;;10.30;99.90;;;;;;5200764;28;20038;-76
2022/10/27 06:15:58;;;;;;;19.55;10.00;;;10.40;99.90;;;;;;5200487;28;20021;-75
2022/10/27 06:18:50;;;;;;;17.73;9.25;;;10.30;99.90;;;;;;5200645;28;20390;-75
2022/10/27 06:21:41;;;;;;;15.57;7.90;;;10.20;99.90;;;;;;5186336;28;20031;-75
2022/10/27 06:24:35;;;;;;;14.48;8.13;;;10.40;99.90;;;;;;5201570;28;20033;-75
2022/10/27 06:27:26;;;;;;;19.00;8.70;;;10.60;99.90;;;;;;5203516;28;20037;-75
2022/10/27 06:30:21;;;;;;;16.38;9.82;;;10.70;99.90;;;;;;5184870;28;20101;-76
2022/10/27 06:33:13;;;;;;;17.30;9.93;;;10.90;99.90;;;;;;5202179;28;20031;-75
2022/10/27 06:36:05;;;;;;;17.33;8.93;;;11.00;99.90;;;;;;5188932;28;20029;-76
2022/10/27 06:38:56;;;;;;;15.75;10.02;;;11.30;99.90;;;;;;5201243;28;20048;-76
2022/10/27 06:41:51;;;;;;;26.45;11.38;;;11.50;99.90;;;;;;5186782;28;20303;-76
2022/10/27 06:44:42;;;;;;;23.23;12.93;;;11.70;99.90;;;;;;5199425;28;20250;-76
2022/10/27 06:47:36;;;;;;;21.35;12.35;;;11.70;99.90;;;;;;5200012;28;20030;-76
2022/10/27 06:50:30;;;;;;;22.08;11.57;;;11.90;99.90;;;;;;5200751;28;20031;-75
2022/10/27 06:53:22;;;;;;;29.23;15.27;;;12.00;99.90;;;;;;5189512;28;20322;-76
2022/10/27 06:56:13;;;;;;;20.80;12.35;;;12.10;99.90;;;;;;5206247;28;20121;-77
2022/10/27 06:59:07;;;;;;;20.50;10.82;;;12.20;99.90;;;;;;5202866;28;20013;-77
2022/10/27 07:02:06;;;;;;;16.77;10.97;;;12.40;99.90;;;;;;5199244;28;20051;-76
2022/10/27 07:05:00;;;;;;;17.02;10.40;;;12.50;99.90;;;;;;5174362;28;20429;-77
2022/10/27 07:07:52;;;;;;;16.70;11.68;;;12.70;99.90;;;;;;5203248;28;20035;-75
2022/10/27 07:10:43;;;;;;;22.25;11.63;;;12.80;99.90;;;;;;5191559;28;20025;-76
2022/10/27 07:13:36;;;;;;;20.30;12.05;;;12.90;99.90;;;;;;5202123;28;20204;-75
2022/10/27 07:16:28;;;;;;;15.15;10.65;;;13.10;99.90;;;;;;5203099;28;20033;-74
2022/10/27 07:19:22;;;;;;;15.20;9.52;;;13.30;99.90;;;;;;5198424;28;20238;-75
2022/10/27 07:22:16;;;;;;;14.07;9.33;;;13.50;99.90;;;;;;5200373;28;20033;-76
2022/10/27 07:25:10;;;;;;;13.00;8.73;;;13.70;99.90;;;;;;5200317;28;20031;-75
2022/10/27 07:28:04;;;;;;;20.47;10.53;;;13.90;99.90;;;;;;5187752;28;20025;-77
2022/10/27 07:30:58;;;;;;;15.25;9.75;;;14.10;99.90;;;;;;5200776;28;20765;-76
2022/10/27 07:33:52;;;;;;;18.65;9.55;;;14.20;99.90;;;;;;5201662;28;20033;-76
2022/10/27 07:36:43;;;;;;;15.00;8.32;;;14.10;99.90;;;;;;5177675;28;20043;-76
2022/10/27 07:39:35;;;;;;;16.90;10.43;;;14.30;99.90;;;;;;5201190;28;20030;-76
2022/10/27 07:42:28;;;;;;;20.15;12.27;;;14.60;99.90;;;;;;5185682;28;20043;-75
2022/10/27 07:45:22;;;;;;;17.85;12.07;;;15.10;99.90;;;;;;5202640;28;20047;-77
2022/10/27 07:48:16;;;;;;;18.65;12.48;;;15.50;99.90;;;;;;5201571;28;20284;-76
2022/10/27 07:51:07;;;;;;;18.02;12.10;;;15.80;99.90;;;;;;5203293;28;20043;-76
2022/10/27 07:54:02;;;;;;;20.00;11.75;;;16.10;99.90;;;;;;5204916;28;20029;-75
2022/10/27 07:56:56;;;;;;;19.58;13.02;;;16.40;99.90;;;;;;5204302;28;20033;-76
2022/10/27 07:59:47;;;;;;;21.40;13.18;;;16.60;99.90;;;;;;5190222;28;20335;-75
2022/10/27 08:02:39;;;;;;;19.80;13.38;;;16.70;99.90;;;;;;5189864;28;20162;-75
2022/10/27 08:05:37;;;;;;;17.25;13.13;;;16.90;99.90;;;;;;5195340;28;20056;-77
2022/10/27 08:08:30;;;;;;;16.70;11.70;;;17.00;99.90;;;;;;5202748;28;20063;-76
2022/10/27 08:11:24;;;;;;;19.35;12.38;;;16.80;99.90;;;;;;5204202;28;20128;-77
2022/10/27 08:14:18;;;;;;;18.70;12.68;;;16.80;99.90;;;;;;5202760;28;20259;-76
2022/10/27 08:17:10;;;;;;;17.85;12.65;;;17.10;99.90;;;;;;5189300;28;20307;-77
2022/10/27 08:20:01;;;;;;;18.77;12.88;;;17.40;99.90;;;;;;5204575;28;20033;-76
2022/10/27 08:23:03;;;;;;;17.05;12.02;;;17.70;99.90;;;;;;5204026;28;20033;-77
2022/10/27 08:25:55;;;;;;;16.80;11.90;;;18.10;99.90;;;;;;5204990;28;20042;-76
2022/10/27 08:28:49;;;;;;;19.45;12.13;;;18.50;99.90;;;;;;5204194;28;20349;-77
2022/10/27 08:31:43;;;;;;;17.23;11.27;;;18.50;99.90;;;;;;5204796;28;20063;-75
2022/10/27 08:34:34;;;;;;;18.97;10.87;;;18.60;99.90;;;;;;5204693;28;20047;-77
2022/10/27 08:37:26;;;;;;;17.30;12.20;;;18.90;99.90;;;;;;5186074;28;20034;-77
2022/10/27 08:40:17;;;;;;;20.65;12.52;;;19.20;99.90;;;;;;5202981;28;20494;-77
2022/10/27 08:43:21;;;;;;;19.67;12.27;;;19.50;99.90;;;;;;5188949;28;20031;-76
2022/10/27 08:46:34;;;;;;;16.88;11.75;;;19.70;99.90;;;;;;5189216;28;20349;-77
2022/10/27 08:49:42;;;;;;;17.35;11.23;;;19.90;55.20;;;;;;5205086;28;20309;-77
2022/10/27 08:52:41;;;;;;;16.77;11.13;;;20.00;99.90;;;;;;5189130;28;20055;-76
2022/10/27 08:55:43;;;;;;;19.75;11.05;;;20.10;99.90;;;;;;5184155;28;20336;-77
2022/10/27 08:58:44;;;;;;;15.05;8.30;;;20.70;99.90;;;;;;5184082;28;20353;-77
2022/10/27 09:01:55;;;;;;;12.40;7.97;;;20.90;1.00;;;;;;5189804;28;20029;-77
2022/10/27 09:04:58;;;;;;;10.43;7.80;;;20.80;15.00;;;;;;5193493;28;20047;-77
2022/10/27 09:07:59;;;;;;;13.50;10.38;;;20.70;70.00;;;;;;5207004;28;20029;-76
2022/10/27 09:11:22;;;;;;;18.33;10.35;;;20.60;99.90;;;;;;5183538;28;20038;-77
2022/10/27 09:14:32;;;;;;;14.98;10.35;;;21.00;99.90;;;;;;5156892;28;20034;-78
2022/10/27 09:17:30;;;;;;;20.83;11.30;;;21.20;1.00;;;;;;5193266;28;20039;-76
2022/10/27 09:20:42;;;;;;;13.30;9.95;;;21.20;1.00;;;;;;5223747;28;20325;-77
2022/10/27 09:23:43;;;;;;;14.20;10.13;;;20.60;99.90;;;;;;5213554;28;20029;-76
2022/10/27 09:26:34;;;;;;;16.48;10.48;;;20.60;17.10;;;;;;5194570;28;20440;-77
2022/10/27 09:29:35;;;;;;;13.70;9.05;;;19.80;95.90;;;;;;5203118;28;20033;-77
2022/10/27 09:32:26;;;;;;;15.43;9.88;;;20.10;99.90;;;;;;5202387;28;20335;-77
2022/10/27 09:35:27;;;;;;;15.60;9.98;;;20.50;99.90;;;;;;5202904;28;20021;-77
2022/10/27 09:38:23;;;;;;;15.23;9.95;;;20.60;76.30;;;;;;5202632;28;20041;-76
2022/10/27 09:41:17;;;;;;;15.82;11.00;;;20.30;50.90;;;;;;5201950;28;20576;-76
2022/10/27 09:44:21;;;;;;;16.50;10.57;;;20.50;4.60;;;;;;5189461;28;20033;-77
2022/10/27 09:47:12;;;;;;;12.45;9.07;;;20.90;13.60;;;;;;5202526;28;20044;-77
2022/10/27 09:50:05;;;;;;;15.88;9.80;;;21.40;29.60;;;;;;5188668;28;20216;-77
2022/10/27 09:52:59;;;;;;;14.40;9.32;;;21.80;1.00;;;;;;5203192;28;20031;-77
2022/10/27 09:55:53;;;;;;;15.13;9.95;;;21.60;1.00;;;;;;5201654;28;20333;-78
2022/10/27 09:58:59;;;;;;;15.57;9.68;;;21.60;1.00;;;;;;5202331;28;20026;-76
2022/10/27 10:01:56;;;;;;;13.63;9.30;;;21.70;1.00;;;;;;5187890;28;20045;-77
2022/10/27 10:04:47;;;;;;;9.77;7.70;;;22.00;1.00;;;;;;5192595;28;20376;-77
2022/10/27 10:07:43;;;;;;;13.88;9.15;;;22.40;1.00;;;;;;5208746;28;20021;-77
2022/10/27 10:10:34;;;;;;;11.95;9.13;;;21.60;1.00;;;;;;5166537;28;20586;-75
2022/10/27 10:13:28;;;;;;;13.57;8.77;;;22.10;1.00;;;;;;5180734;28;20136;-78
2022/10/27 10:16:19;;;;;;;11.20;8.68;;;22.70;1.00;;;;;;5180699;28;20029;-78
2022/10/27 10:19:18;;;;;;;13.70;8.38;;;22.10;1.00;;;;;;5182125;28;20361;-77
2022/10/27 10:22:35;;;;;;;10.73;7.80;;;22.80;1.00;;;;;;5182352;28;20239;-78
2022/10/27 10:25:35;;;;;;;10.77;7.25;;;23.10;1.00;;;;;;5188961;28;20040;-78
2022/10/27 10:28:34;;;;;;;8.52;6.35;;;24.00;1.00;;;;;;5188079;28;20041;-76
2022/10/27 10:31:28;;;;;;;10.65;6.20;;;24.90;99.90;;;;;;5186771;28;20032;-77
2022/10/27 10:34:44;;;;;;;9.53;5.90;;;26.20;1.00;;;;;;5202179;28;20025;-76
2022/10/27 10:37:45;;;;;;;8.48;5.65;;;27.50;93.90;;;;;;5201605;28;20564;-76
2022/10/27 10:40:36;;;;;;;8.35;5.03;;;28.00;99.90;;;;;;5166812;28;20053;-79
2022/10/27 10:43:29;;;;;;;10.38;5.03;;;27.50;99.90;;;;;;5208635;28;20033;-78
2022/10/27 10:46:25;;;;;;;9.15;4.68;;;28.30;99.90;;;;;;5207983;28;20035;-78
2022/10/27 10:49:22;;;;;;;7.18;5.15;;;28.90;99.90;;;;;;5221573;28;20326;-77
2022/10/27 10:52:23;;;;;;;8.98;4.90;;;29.00;99.90;;;;;;5221378;28;20440;-78
2022/10/27 10:55:39;;;;;;;6.45;4.75;;;28.20;99.90;;;;;;5205793;28;20021;-77
2022/10/27 10:58:35;;;;;;;7.70;5.60;;;27.90;99.90;;;;;;5201216;28;20033;-76
2022/10/27 11:01:40;;;;;;;6.60;5.50;;;27.10;99.90;;;;;;5186592;28;20222;-77
2022/10/27 11:04:40;;;;;;;9.18;4.57;;;27.30;99.90;;;;;;5191585;28;20060;-77
2022/10/27 11:07:32;;;;;;;8.63;4.80;;;28.10;99.90;;;;;;5185064;28;20038;-77
2022/10/27 11:10:53;;;;;;;9.65;5.82;;;28.60;99.90;;;;;;5200387;28;20030;-78
2022/10/27 11:13:57;;;;;;;6.80;5.63;;;27.70;99.90;;;;;;5187364;28;20199;-77
2022/10/27 11:16:54;;;;;;;8.82;5.15;;;27.80;99.90;;;;;;5200917;28;20033;-76
2022/10/27 11:19:45;;;;;;;8.38;5.72;;;28.10;99.90;;;;;;5186907;28;20513;-78
2022/10/27 11:22:37;;;;;;;8.57;6.03;;;28.40;99.90;;;;;;5200643;28;20043;-77
2022/10/27 11:25:36;;;;;;;10.65;6.90;;;28.30;99.90;;;;;;5205559;28;20037;-78
2022/10/27 11:29:02;;;;;;;8.07;6.57;;;28.40;99.90;;;;;;5190920;28;20037;-78
2022/10/27 11:31:53;;;;;;;9.68;5.57;;;27.40;99.90;;;;;;5205739;28;20033;-77
2022/10/27 11:35:13;;;;;;;8.38;6.10;;;28.50;99.90;;;;;;5206386;28;20021;-75
2022/10/27 11:38:20;;;;;;;9.02;6.32;;;29.30;99.90;;;;;;5205907;28;20014;-77
2022/10/27 11:41:38;;;;;;;11.00;5.72;;;27.90;99.90;;;;;;5204125;28;20033;-78
2022/10/27 11:44:48;;;;;;;8.93;5.32;;;28.10;99.90;;;;;;5190335;28;20025;-78
2022/10/27 11:47:49;;;;;;;8.00;4.72;;;27.50;99.90;;;;;;5203635;28;20029;-77
2022/10/27 11:50:50;;;;;;;6.85;5.15;;;27.50;99.90;;;;;;5189566;28;20029;-78
2022/10/27 11:53:41;;;;;;;7.03;5.22;;;27.60;99.90;;;;;;5205778;28;20231;-77
2022/10/27 11:56:52;;;;;;;7.32;4.70;;;27.60;99.90;;;;;;5192957;28;20017;-77
2022/10/27 11:59:53;;;;;;;7.00;5.53;;;27.30;99.90;;;;;;5206682;28;20032;-77
2022/10/27 12:03:03;;;;;;;8.25;5.13;;;26.80;99.90;;;;;;5185686;28;20034;-78
2022/10/27 12:06:06;;;;;;;8.63;5.60;;;27.00;99.90;;;;;;5174133;28;20054;-77
2022/10/27 12:09:26;;;;;;;12.77;5.82;;;27.60;99.90;;;;;;5192783;28;20026;-77
2022/10/27 12:12:40;;;;;;;9.30;5.00;;;27.30;99.90;;;;;;5189967;28;20027;-77
2022/10/27 12:16:09;;;;;;;11.77;5.45;;;27.80;99.90;;;;;;5204261;28;20025;-78
2022/10/27 12:19:25;;;;;;;8.68;5.00;;;27.70;99.90;;;;;;5121519;28;20053;-77
2022/10/27 12:22:36;;;;;;;8.13;4.20;;;27.90;99.90;;;;;;5121699;28;20050;-78
2022/10/27 12:25:49;;;;;;;8.23;4.45;;;28.30;99.90;;;;;;5122156;28;20050;-77
2022/10/27 12:28:44;;;;;;;9.25;5.25;;;27.90;99.90;;;;;;5122655;28;20043;-77
2022/10/27 12:31:52;;;;;;;7.85;4.78;;;27.30;99.90;;;;;;5128192;28;20069;-77
2022/10/27 12:34:58;;;;;;;11.43;4.60;;;27.00;99.90;;;;;;5144335;28;20030;-77
2022/10/27 12:37:54;;;;;;;11.20;5.40;;;26.30;99.90;;;;;;5141036;28;20032;-76
2022/10/27 12:40:56;;;;;;;5.90;4.72;;;26.80;99.90;;;;;;5122372;28;20341;-77
2022/10/27 12:44:15;;;;;;;10.27;4.60;;;27.30;99.90;;;;;;5120595;29;20079;-77
2022/10/27 12:47:26;;;;;;;8.00;4.80;;;27.30;99.90;;;;;;5133223;28;20451;-77
2022/10/27 12:50:38;;;;;;;5.15;3.45;;;27.10;99.90;;;;;;5128307;28;20026;-77
2022/10/27 12:53:44;;;;;;;6.55;3.83;;;26.40;99.90;;;;;;5146913;28;20038;-77
2022/10/27 12:56:54;;;;;;;6.93;4.03;;;26.00;99.90;;;;;;5182716;28;20022;-77
2022/10/27 12:59:49;;;;;;;7.38;3.60;;;25.60;99.90;;;;;;5184133;28;20022;-78
2022/10/27 13:03:22;;;;;;;7.03;3.55;;;25.30;99.90;;;;;;5204900;28;20039;-77
2022/10/27 13:06:52;;;;;;;8.38;3.70;;;24.50;99.90;;;;;;5192502;28;20385;-77
2022/10/27 13:10:14;;;;;;;5.07;3.10;;;24.10;99.90;;;;;;5200195;28;20033;-77
2022/10/27 13:13:32;;;;;;;6.45;3.55;;;24.10;99.90;;;;;;5203737;28;20198;-77
2022/10/27 13:16:30;;;;;;;5.18;3.25;;;24.20;99.90;;;;;;5203133;28;20064;-77
2022/10/27 13:19:27;;;;;;;5.55;3.63;;;24.50;99.90;;;;;;5202398;28;20025;-77
2022/10/27 13:22:44;;;;;;;4.72;3.28;;;23.90;99.90;;;;;;5190151;28;20651;-77
2022/10/27 13:25:48;;;;;;;4.15;3.10;;;24.40;99.90;;;;;;5201428;28;20035;-77
2022/10/27 13:28:51;;;;;;;10.07;3.00;;;24.50;99.90;;;;;;5188484;28;20029;-77
2022/10/27 13:32:03;;;;;;;3.78;3.28;;;24.50;99.90;;;;;;5203035;28;20023;-77
2022/10/27 13:35:00;;;;;;;5.68;3.13;;;24.30;99.90;;;;;;5201901;28;20033;-76
2022/10/27 13:37:57;;;;;;;8.00;3.50;;;23.90;99.90;;;;;;5167736;28;20105;-77
2022/10/27 13:40:49;;;;;;;6.38;4.05;;;23.70;99.90;;;;;;5182561;28;20254;-77
2022/10/27 13:43:46;;;;;;;7.63;4.13;;;23.30;99.90;;;;;;5182614;28;20230;-76
2022/10/27 13:47:03;;;;;;;5.50;3.78;;;22.50;99.90;;;;;;5167219;28;20025;-76
2022/10/27 13:49:55;;;;;;;7.47;4.38;;;22.00;99.90;;;;;;5179956;28;20048;-77
2022/10/27 13:53:13;;;;;;;10.75;5.07;;;21.40;99.90;;;;;;5178179;28;20022;-77
2022/10/27 13:56:07;;;;;;;9.90;5.20;;;20.70;99.90;;;;;;5181865;28;20030;-77
2022/10/27 13:59:27;;;;;;;8.57;4.83;;;20.20;99.90;;;;;;5181866;28;20032;-77
2022/10/27 14:02:31;;;;;;;7.30;4.88;;;20.00;99.90;;;;;;5200477;28;20055;-76
2022/10/27 14:05:55;;;;;;;9.15;5.90;;;19.90;99.90;;;;;;5191031;28;20267;-75
2022/10/27 14:08:54;;;;;;;8.43;5.35;;;19.90;99.90;;;;;;5185040;28;20234;-77
2022/10/27 14:11:47;;;;;;;6.28;5.03;;;19.70;99.90;;;;;;5188941;28;20025;-77
2022/10/27 14:14:42;;;;;;;18.95;6.15;;;19.60;99.90;;;;;;5192117;28;20033;-76
2022/10/27 14:17:39;;;;;;;8.23;6.10;;;19.30;99.90;;;;;;5204840;28;20327;-76
2022/10/27 14:20:39;;;;;;;8.60;5.78;;;19.00;99.90;;;;;;5202597;28;20029;-76
2022/10/27 14:23:32;;;;;;;11.63;5.90;;;18.90;99.90;;;;;;5176209;28;20335;-75
2022/10/27 14:26:35;;;;;;;9.60;6.93;;;18.70;99.90;;;;;;5175813;28;20322;-76
2022/10/27 14:29:27;;;;;;;10.50;5.75;;;18.50;99.90;;;;;;5203713;28;20047;-77
2022/10/27 14:32:30;;;;;;;8.35;6.28;;;18.40;99.90;;;;;;5202704;28;20031;-77
2022/10/27 14:35:24;;;;;;;14.30;5.95;;;18.40;99.90;;;;;;5188414;28;20025;-77
2022/10/27 14:38:22;;;;;;;11.07;5.85;;;18.40;99.90;;;;;;5187681;28;20035;-76
2022/10/27 14:41:19;;;;;;;11.40;6.78;;;18.40;99.90;;;;;;5207584;28;20029;-77
2022/10/27 14:44:28;;;;;;;10.27;6.43;;;18.40;99.90;;;;;;5222538;28;20039;-78
2022/10/27 14:47:22;;;;;;;9.07;5.68;;;18.40;99.90;;;;;;5225081;28;20549;-77
2022/10/27 14:50:33;;;;;;;8.90;6.90;;;18.30;99.90;;;;;;5223624;28;20444;-77
2022/10/27 14:53:35;;;;;;;11.70;7.75;;;18.30;99.90;;;;;;5209049;28;20031;-75
2022/10/27 14:56:30;;;;;;;11.80;7.55;;;18.30;99.90;;;;;;5190937;28;20310;-76
2022/10/27 14:59:28;;;;;;;14.48;8.73;;;18.20;99.90;;;;;;5181016;28;20033;-77
2022/10/27 15:02:24;;;;;;;9.15;7.32;;;18.10;99.90;;;;;;5181548;28;20030;-77
2022/10/27 15:05:25;;;;;;;12.30;7.75;;;18.00;99.90;;;;;;5171364;28;20053;-76
2022/10/27 15:08:35;;;;;;;10.70;7.95;;;17.90;99.90;;;;;;5185428;28;20496;-77
2022/10/27 15:11:26;;;;;;;13.20;7.95;;;17.80;99.90;;;;;;5180508;28;20032;-77
2022/10/27 15:14:20;;;;;;;10.45;7.57;;;17.80;99.90;;;;;;5167403;28;20044;-75
2022/10/27 15:17:33;;;;;;;12.52;8.45;;;17.60;99.90;;;;;;5181132;28;20033;-76